Takaoka, Japan
Current Conditions -  °F | °C
As of 6:10 AM on Saturday 01 Nov 2014 (Local Time) from RJNT Reporting Station
Moderate Rain Moderate Rain  
Wind Chill: 57°   Ceiling: 8000
Heat Index: 57°   Visibility: 5mi
Dew Point: 55°   Wind: 5mph
Humidity: 94%   Direction: 130°SE
Pressure: 30"   Gusts: NA
Location:  36.75°N, 137.02°E
Report Text: RJNT 312110Z 13004KT 080V200 8000 RA FEW050 SCT070 OVC080 14/13 Q1016 RMK 1SC050 4AC070 8AS080 A3001
Loading
Personal Weather Stations






























Interactive Weather Map
Tropical Storm Tracking
New forecast layout! Learn more

10-Day Weather Forecast

Advertisements
Track Severe Weather on mobile